createdAt,value
2018-11-13T00:03:54.476Z,31.00
2018-11-13T00:07:57.950Z,29.73
2018-11-13T00:12:01.439Z,32.13
2018-11-13T00:16:05.249Z,31.67
2018-11-13T00:20:11.574Z,28.70
2018-11-13T00:24:15.089Z,34.10
2018-11-13T00:28:18.569Z,28.30
2018-11-13T00:32:22.110Z,29.90
2018-11-13T00:36:25.635Z,30.10
2018-11-13T00:40:29.135Z,28.83
2018-11-13T00:44:32.575Z,32.03
2018-11-13T00:48:36.086Z,30.37
2018-11-13T00:52:39.572Z,32.23
2018-11-13T00:56:43.065Z,28.83
2018-11-13T01:00:46.555Z,32.50
2018-11-13T01:04:50.019Z,32.13
2018-11-13T01:08:53.814Z,31.33
2018-11-13T01:12:57.291Z,33.17
2018-11-13T01:17:00.829Z,29.97
2018-11-13T01:21:04.326Z,34.77
2018-11-13T01:25:08.743Z,32.87
2018-11-13T01:29:12.339Z,31.20
2018-11-13T01:33:15.818Z,29.40
2018-11-13T01:37:19.276Z,29.30
2018-11-13T01:41:22.767Z,38.27
2018-11-13T01:45:26.265Z,31.83
2018-11-13T01:49:29.760Z,29.83
2018-11-13T01:53:33.178Z,37.27
2018-11-13T01:57:36.895Z,35.20
2018-11-13T02:01:40.369Z,33.87
2018-11-13T02:05:43.844Z,29.60
2018-11-13T02:09:47.318Z,31.33
2018-11-13T02:13:50.802Z,33.80
2018-11-13T02:17:54.509Z,29.63
2018-11-13T02:21:58.051Z,34.23
2018-11-13T02:26:01.509Z,33.07
2018-11-13T02:30:05.447Z,38.90
2018-11-13T02:34:09.202Z,34.40
2018-11-13T02:38:12.713Z,31.33
2018-11-13T02:42:16.270Z,33.43
2018-11-13T02:46:19.789Z,38.57
2018-11-13T02:50:23.198Z,38.60
2018-11-13T02:54:26.664Z,33.13
2018-11-13T02:58:30.341Z,41.60
2018-11-13T03:02:34.031Z,32.20
2018-11-13T03:06:37.507Z,37.13
2018-11-13T03:10:41.031Z,35.20
2018-11-13T03:14:44.501Z,39.00
2018-11-13T03:18:48.014Z,35.40
2018-11-13T03:22:51.512Z,37.03
2018-11-13T03:26:54.990Z,36.23
2018-11-13T03:30:58.596Z,41.10
2018-11-13T03:35:01.958Z,36.60
2018-11-13T03:39:07.360Z,44.03
2018-11-13T03:43:10.862Z,34.50
2018-11-13T03:47:14.300Z,37.67
2018-11-13T03:51:17.778Z,29.97
2018-11-13T03:55:21.522Z,35.60
2018-11-13T03:59:25.001Z,29.00
2018-11-13T04:03:28.691Z,31.90
2018-11-13T04:07:32.271Z,33.77
2018-11-13T04:11:35.805Z,30.97
2018-11-13T04:15:39.448Z,27.30
2018-11-13T04:19:42.901Z,26.47
2018-11-13T04:23:46.389Z,28.37
2018-11-13T04:27:49.850Z,24.00
2018-11-13T04:31:53.273Z,26.83
2018-11-13T04:35:56.742Z,28.60
2018-11-13T04:40:00.196Z,23.77
2018-11-13T04:44:03.708Z,28.50
2018-11-13T04:48:07.169Z,24.83
2018-11-13T04:52:10.658Z,24.17
2018-11-13T04:56:14.145Z,25.73
2018-11-13T05:00:21.741Z,20.23
2018-11-13T05:04:25.222Z,21.90
2018-11-13T05:08:28.713Z,23.17
2018-11-13T05:12:32.171Z,26.23
2018-11-13T05:16:35.654Z,24.33
2018-11-13T05:20:39.173Z,25.03
2018-11-13T05:24:42.625Z,26.10
2018-11-13T05:28:46.255Z,21.30
2018-11-13T05:32:49.816Z,23.97
2018-11-13T05:36:53.322Z,16.50
2018-11-13T05:40:56.845Z,21.80
2018-11-13T05:45:02.159Z,25.97
2018-11-13T05:49:05.828Z,28.47
2018-11-13T05:53:09.433Z,28.43
2018-11-13T05:57:12.930Z,28.33
2018-11-13T06:01:16.450Z,24.03
2018-11-13T06:05:19.938Z,22.50
2018-11-13T06:09:23.443Z,22.80
2018-11-13T06:13:26.901Z,22.30
2018-11-13T06:17:30.378Z,22.80
2018-11-13T06:21:33.831Z,27.80
2018-11-13T06:25:37.302Z,23.50
2018-11-13T06:29:40.835Z,24.43
2018-11-13T06:33:44.330Z,21.73
2018-11-13T06:37:47.906Z,23.93
2018-11-13T06:41:51.420Z,24.43
2018-11-13T06:45:54.918Z,25.60
2018-11-13T06:49:58.393Z,20.37
2018-11-13T06:54:12.918Z,21.93
2018-11-13T06:58:16.397Z,20.00
2018-11-13T07:02:19.926Z,22.90
2018-11-13T07:06:23.481Z,21.37
2018-11-13T07:10:27.790Z,28.30
2018-11-13T07:14:31.283Z,25.10
2018-11-13T07:18:34.791Z,19.83
2018-11-13T07:22:38.276Z,24.27
2018-11-13T07:26:41.791Z,21.60
2018-11-13T07:30:45.225Z,23.17
2018-11-13T07:34:48.755Z,22.23
2018-11-13T07:38:52.240Z,21.47
2018-11-13T07:42:55.886Z,20.47
2018-11-13T07:46:59.504Z,20.97
2018-11-13T07:51:02.969Z,18.60
2018-11-13T07:55:06.951Z,20.67
2018-11-13T07:59:10.531Z,21.67
2018-11-13T08:03:33.292Z,21.13
2018-11-13T08:07:36.816Z,19.77
2018-11-13T08:11:40.306Z,20.80
2018-11-13T08:15:43.988Z,24.67
2018-11-13T08:19:47.707Z,27.30
2018-11-13T08:23:51.207Z,22.27
2018-11-13T08:27:54.758Z,15.80
2018-11-13T08:31:58.321Z,17.87
2018-11-13T08:36:01.741Z,15.50
2018-11-13T08:40:07.175Z,20.60
2018-11-13T08:44:10.843Z,22.23
2018-11-13T08:48:14.189Z,19.17
2018-11-13T08:52:17.680Z,20.10
2018-11-13T08:56:21.132Z,18.73
2018-11-13T09:00:24.655Z,18.93
2018-11-13T09:04:28.183Z,19.13
2018-11-13T09:08:31.666Z,20.13
2018-11-13T09:12:35.095Z,18.37
2018-11-13T09:16:38.694Z,20.50
2018-11-13T09:20:42.137Z,19.43
2018-11-13T09:24:45.670Z,18.40
2018-11-13T09:28:49.203Z,19.10
2018-11-13T09:32:52.795Z,22.33
2018-11-13T09:36:56.247Z,20.23
2018-11-13T09:40:59.701Z,20.07
2018-11-13T09:45:03.311Z,18.73
2018-11-13T09:49:06.959Z,17.70
2018-11-13T09:53:10.446Z,20.33
2018-11-13T09:57:13.888Z,14.73
2018-11-13T10:01:17.800Z,15.47
2018-11-13T10:05:21.624Z,20.53
2018-11-13T10:09:24.925Z,16.00
2018-11-13T10:13:28.429Z,20.53
2018-11-13T10:17:32.005Z,15.27
2018-11-13T10:21:35.550Z,13.33
2018-11-13T10:25:39.040Z,15.33
2018-11-13T10:29:42.494Z,16.83
2018-11-13T10:33:45.983Z,12.80
2018-11-13T10:37:49.495Z,10.73
2018-11-13T10:41:52.998Z,12.90
2018-11-13T10:45:56.461Z,14.90
2018-11-13T10:49:59.962Z,12.73
2018-11-13T10:54:03.622Z,13.60
2018-11-13T10:58:07.074Z,12.63
2018-11-13T11:02:15.742Z,13.50
2018-11-13T11:06:19.263Z,13.37
2018-11-13T11:10:22.738Z,9.43
2018-11-13T11:14:26.213Z,10.50
2018-11-13T11:18:29.799Z,10.30
2018-11-13T11:22:33.331Z,13.17
2018-11-13T11:26:36.781Z,10.97
2018-11-13T11:30:40.262Z,7.10
2018-11-13T11:34:44.415Z,6.43
2018-11-13T11:38:47.978Z,7.27
2018-11-13T11:42:51.431Z,6.37
2018-11-13T11:46:54.890Z,5.90
2018-11-13T11:50:58.377Z,7.20
2018-11-13T11:55:01.912Z,7.30
2018-11-13T11:59:05.474Z,7.77
2018-11-13T12:03:08.983Z,10.70
2018-11-13T12:07:12.437Z,8.43
2018-11-13T12:11:15.937Z,9.40
2018-11-13T12:15:19.402Z,10.43
2018-11-13T12:19:22.947Z,9.43
2018-11-13T12:23:26.416Z,9.20
2018-11-13T12:27:29.908Z,8.13
2018-11-13T12:31:33.354Z,9.20
2018-11-13T12:35:37.216Z,11.40
2018-11-13T12:39:40.695Z,12.03
2018-11-13T12:43:44.192Z,11.63
2018-11-13T12:47:47.639Z,12.37
2018-11-13T12:51:56.459Z,11.63
2018-11-13T12:56:00.568Z,13.03
2018-11-13T13:00:04.051Z,12.60
2018-11-13T13:04:07.515Z,12.70
2018-11-13T13:08:11.083Z,10.67
2018-11-13T13:12:14.529Z,12.57
2018-11-13T13:16:18.032Z,11.33
2018-11-13T13:20:22.851Z,8.63
2018-11-13T13:24:26.454Z,10.30
2018-11-13T13:28:29.939Z,7.17
2018-11-13T13:32:33.415Z,9.20
2018-11-13T13:36:37.078Z,8.63
2018-11-13T13:40:41.390Z,9.10
2018-11-13T13:44:44.881Z,9.33
2018-11-13T13:48:48.612Z,8.90
2018-11-13T13:52:52.133Z,8.33
2018-11-13T13:56:56.739Z,9.43
2018-11-13T14:01:00.389Z,9.83
2018-11-13T14:05:03.770Z,10.43
2018-11-13T14:09:09.189Z,9.30
2018-11-13T14:13:12.837Z,10.80
2018-11-13T14:17:16.344Z,9.70
2018-11-13T14:21:19.822Z,9.20
2018-11-13T14:25:23.410Z,11.00
2018-11-13T14:29:26.854Z,8.10
2018-11-13T14:33:30.410Z,12.77
2018-11-13T14:37:33.877Z,9.83
2018-11-13T14:41:37.398Z,8.73
2018-11-13T14:45:41.017Z,9.30
2018-11-13T14:49:44.525Z,9.50
2018-11-13T14:53:48.038Z,9.37
2018-11-13T14:57:51.931Z,8.47
2018-11-13T15:01:55.529Z,9.63
2018-11-13T15:05:59.060Z,10.30
2018-11-13T15:10:03.630Z,10.33
2018-11-13T15:14:07.141Z,10.77
2018-11-13T15:18:10.959Z,10.10
2018-11-13T15:22:14.583Z,14.07
2018-11-13T15:26:18.020Z,9.10
2018-11-13T15:30:25.961Z,11.40
2018-11-13T15:34:29.594Z,11.87
2018-11-13T15:38:33.091Z,11.07
2018-11-13T15:42:38.281Z,14.03
2018-11-13T15:46:40.627Z,13.27
2018-11-13T15:50:44.115Z,13.30
2018-11-13T15:54:48.060Z,13.40
2018-11-13T15:58:51.558Z,13.93
2018-11-13T16:02:55.735Z,12.70
2018-11-13T16:06:59.460Z,14.17
2018-11-13T16:11:03.044Z,13.37
2018-11-13T16:15:06.920Z,12.30
2018-11-13T16:19:10.458Z,13.03
2018-11-13T16:23:13.961Z,12.83
2018-11-13T16:27:17.478Z,13.17
2018-11-13T16:31:20.917Z,12.53
2018-11-13T16:35:25.605Z,13.00
2018-11-13T16:39:29.010Z,13.43
2018-11-13T16:43:33.062Z,14.77
2018-11-13T16:47:36.534Z,18.07
2018-11-13T16:51:40.119Z,19.67
2018-11-13T16:55:48.819Z,14.57
2018-11-13T16:59:52.328Z,12.33
2018-11-13T17:03:55.843Z,15.13
2018-11-13T17:07:59.272Z,11.17
2018-11-13T17:12:03.123Z,12.90
2018-11-13T17:16:06.609Z,14.57
2018-11-13T17:20:11.235Z,14.37
2018-11-13T17:24:14.752Z,13.10
2018-11-13T17:28:18.307Z,13.10
2018-11-13T17:32:21.830Z,17.23
2018-11-13T17:36:25.382Z,13.50
2018-11-13T17:40:31.052Z,11.60
2018-11-13T17:44:34.625Z,13.73
2018-11-13T17:48:38.089Z,11.10
2018-11-13T17:52:42.027Z,11.53
2018-11-13T17:56:45.483Z,13.60
2018-11-13T18:00:49.220Z,13.00
2018-11-13T18:09:18.402Z,12.43
2018-11-13T18:13:21.895Z,13.00
2018-11-13T18:17:25.382Z,10.87
2018-11-13T18:21:28.875Z,11.57
2018-11-13T18:25:32.285Z,13.37
2018-11-13T18:29:35.945Z,11.67
2018-11-13T18:33:39.561Z,9.87
2018-11-13T18:37:43.388Z,11.93
2018-11-13T18:41:47.020Z,12.43
2018-11-13T18:45:50.735Z,11.10
2018-11-13T18:49:54.443Z,12.20
2018-11-13T18:53:58.082Z,13.83
2018-11-13T18:58:02.161Z,12.27
2018-11-13T19:02:06.239Z,9.97
2018-11-13T19:06:09.846Z,10.63
2018-11-13T19:10:51.787Z,13.70
2018-11-13T19:14:55.423Z,12.50
2018-11-13T19:18:59.397Z,10.40
2018-11-13T19:23:04.958Z,10.87
2018-11-13T19:27:09.405Z,11.63
2018-11-13T19:31:13.159Z,11.23
2018-11-13T19:35:17.272Z,11.77
2018-11-13T19:39:20.951Z,10.73
2018-11-13T19:43:24.588Z,10.73
2018-11-13T19:47:30.122Z,10.67
2018-11-13T19:51:33.906Z,13.83
2018-11-13T19:55:37.694Z,12.33
2018-11-13T19:59:41.471Z,11.80
2018-11-13T20:03:45.294Z,12.27
2018-11-13T20:07:50.149Z,10.40
2018-11-13T20:11:55.679Z,12.13
2018-11-13T20:15:59.375Z,12.33
2018-11-13T20:20:03.105Z,13.13
2018-11-13T20:24:06.843Z,14.53
2018-11-13T20:28:10.397Z,14.80
2018-11-13T20:32:13.938Z,11.87
2018-11-13T20:36:17.437Z,12.43
2018-11-13T20:40:27.220Z,11.70
2018-11-13T20:44:30.794Z,12.97
2018-11-13T20:48:34.353Z,11.53
2018-11-13T20:52:38.024Z,13.17
2018-11-13T20:56:41.529Z,13.90
2018-11-13T21:00:45.046Z,11.20
2018-11-13T21:04:48.925Z,12.87
2018-11-13T21:08:52.429Z,13.60
2018-11-13T21:12:55.945Z,11.63
2018-11-13T21:16:59.499Z,12.83
2018-11-13T21:21:03.088Z,13.53
2018-11-13T21:25:07.990Z,13.63
2018-11-13T21:29:11.157Z,13.63
2018-11-13T21:33:14.926Z,12.53
2018-11-13T21:37:18.589Z,10.80
2018-11-13T21:41:22.042Z,12.77
2018-11-13T21:45:26.494Z,12.87
2018-11-13T21:49:30.015Z,11.00
2018-11-13T21:53:33.543Z,10.83
2018-11-13T21:57:37.087Z,12.93
2018-11-13T22:01:40.660Z,11.77
2018-11-13T22:05:44.225Z,11.20
2018-11-13T22:09:47.814Z,13.93
2018-11-13T22:13:51.271Z,10.57
2018-11-13T22:17:54.731Z,12.83
2018-11-13T22:21:58.209Z,13.10
2018-11-13T22:26:01.665Z,12.73
2018-11-13T22:30:05.346Z,10.97
2018-11-13T22:34:08.915Z,9.97
2018-11-13T22:38:12.387Z,10.47
2018-11-13T22:42:15.886Z,13.47
2018-11-13T22:46:19.383Z,14.73
2018-11-13T22:50:26.976Z,13.90
2018-11-13T22:54:30.450Z,12.67
2018-11-13T22:58:33.907Z,11.87
2018-11-13T23:02:37.372Z,11.73
2018-11-13T23:06:40.881Z,11.73
2018-11-13T23:10:44.364Z,12.50
2018-11-13T23:14:47.850Z,13.47
2018-11-13T23:18:51.338Z,12.80
2018-11-13T23:22:54.835Z,13.63
2018-11-13T23:26:58.322Z,13.37
2018-11-13T23:31:01.853Z,13.50
2018-11-13T23:35:06.189Z,13.87
2018-11-13T23:39:09.426Z,13.10
2018-11-13T23:43:12.914Z,12.73
2018-11-13T23:47:16.705Z,12.33
2018-11-13T23:51:20.025Z,11.60
2018-11-13T23:55:23.536Z,11.40
2018-11-13T23:59:26.959Z,12.07
